createdAt,value
2023-05-22T00:14:50.889Z,23.72
2023-05-22T00:29:52.968Z,24.88
2023-05-22T00:44:54.978Z,26.25
2023-05-22T00:59:57.069Z,24.17
2023-05-22T01:14:59.218Z,23.3
2023-05-22T01:30:01.342Z,21.71
2023-05-22T01:45:03.538Z,21.23
2023-05-22T02:00:05.781Z,20.5
2023-05-22T02:15:07.955Z,19.8
2023-05-22T02:30:10.070Z,19.26
2023-05-22T02:45:12.112Z,19.58
2023-05-22T03:00:14.315Z,17.89
2023-05-22T03:15:16.509Z,17.64
2023-05-22T03:30:18.574Z,17.82
2023-05-22T03:45:20.629Z,17.44
2023-05-22T04:00:22.686Z,18.98
2023-05-22T04:15:24.735Z,19.06
2023-05-22T04:30:26.769Z,18.85
2023-05-22T04:45:29.070Z,17.85
2023-05-22T05:00:31.308Z,17.9
2023-05-22T05:15:33.366Z,18.51
2023-05-22T05:30:35.445Z,18.92
2023-05-22T05:45:37.509Z,18.75
2023-05-22T06:00:39.863Z,17.61
2023-05-22T06:15:42.157Z,18.31
2023-05-22T06:30:44.396Z,17.96
2023-05-22T06:45:46.715Z,18.56
2023-05-22T07:00:48.921Z,17.7
2023-05-22T07:15:51.001Z,18.11
2023-05-22T07:30:53.178Z,18.27
2023-05-22T07:45:55.316Z,17.45
2023-05-22T08:00:57.458Z,17.79
2023-05-22T08:16:01.145Z,17.42
2023-05-22T08:31:03.697Z,18
2023-05-22T08:46:05.844Z,17.76
2023-05-22T09:01:07.984Z,18.09
2023-05-22T09:16:10.142Z,18.02
2023-05-22T09:31:12.343Z,17.35
2023-05-22T09:46:14.504Z,17.66
2023-05-22T10:01:16.618Z,17.42
2023-05-22T10:16:18.737Z,17.25
2023-05-22T10:31:20.885Z,17.5
2023-05-22T10:46:22.985Z,17.76
2023-05-22T11:01:25.157Z,17.63
2023-05-22T11:16:27.331Z,17.49
2023-05-22T11:31:29.511Z,17.49
2023-05-22T11:46:31.817Z,17.24
2023-05-22T12:01:33.942Z,17.35
2023-05-22T12:16:36.166Z,17.75
2023-05-22T12:31:38.321Z,17.67
2023-05-22T12:46:40.666Z,17.47
2023-05-22T13:01:42.841Z,17.49
2023-05-22T13:16:44.912Z,18.05
2023-05-22T13:31:46.993Z,17.81
2023-05-22T13:46:49.127Z,17.53
2023-05-22T14:01:51.266Z,17.6
2023-05-22T14:16:53.392Z,17.9
2023-05-22T14:31:55.457Z,17.62
2023-05-22T14:46:57.548Z,17.87
2023-05-22T15:01:59.668Z,18.14
2023-05-22T15:17:01.772Z,17.22
2023-05-22T15:32:03.959Z,17.5
2023-05-22T15:47:06.111Z,17.21
2023-05-22T16:02:08.204Z,16.94
2023-05-22T16:17:10.257Z,16.28
2023-05-22T16:32:12.398Z,16.62
2023-05-22T16:47:15.030Z,17.13
2023-05-22T17:02:17.078Z,16.88
2023-05-22T17:17:19.125Z,16.77
2023-05-22T17:32:21.522Z,17.29
2023-05-22T17:47:23.713Z,17.54
2023-05-22T18:02:25.941Z,16.61
2023-05-22T18:17:28.141Z,17.71
2023-05-22T18:32:30.307Z,17.71
2023-05-22T18:47:32.484Z,17.81
2023-05-22T19:02:34.634Z,17.96
2023-05-22T19:17:36.773Z,17.8
2023-05-22T19:32:38.880Z,18.09
2023-05-22T19:47:41.020Z,18.06
2023-05-22T20:02:43.324Z,17.66
2023-05-22T20:17:45.538Z,16.73
2023-05-22T20:32:47.661Z,16.22
2023-05-22T20:47:49.850Z,15.85
2023-05-22T21:02:51.934Z,15.57
2023-05-22T21:17:54.105Z,16.31
2023-05-22T21:32:56.273Z,16.52
2023-05-22T21:47:58.481Z,17.42
2023-05-22T22:03:00.604Z,17.51
2023-05-22T22:18:02.853Z,17.23
2023-05-22T22:33:05.014Z,17.32
2023-05-22T22:48:07.244Z,17.3
2023-05-22T23:03:09.526Z,17.87
2023-05-22T23:18:11.695Z,18.64
2023-05-22T23:33:13.769Z,18.36
2023-05-22T23:48:15.865Z,16.74
